Time;durP1;ratioP1;P1;durP2;ratioP2;P2;SDS_P1;SDS_P2;PMS_P1;PMS_P2;Temp;Humidity;BMP_temperature;BMP_pressure;BME280_temperature;BME280_humidity;BME280_pressure;Samples;Min_cycle;Max_cycle;Signal;HPM_P1;HPM_P2
2022/08/06 00:01:05;;;;;;;9.00;3.63;;;25.20;48.30;;;;;;4992651;28;20022;-74
2022/08/06 00:03:31;;;;;;;11.40;4.07;;;25.20;48.20;;;;;;4993385;28;20030;-74
2022/08/06 00:05:57;;;;;;;25.25;14.43;;;25.20;48.00;;;;;;4991981;28;20386;-75
2022/08/06 00:08:22;;;;;;;20.33;10.70;;;25.20;48.40;;;;;;4992900;28;20505;-76
2022/08/06 00:10:48;;;;;;;18.48;10.60;;;25.20;48.40;;;;;;4993388;28;20103;-75
2022/08/06 00:13:14;;;;;;;26.05;13.32;;;25.30;47.80;;;;;;4993895;28;20053;-75
2022/08/06 00:15:40;;;;;;;22.38;12.40;;;25.40;48.10;;;;;;4995709;28;20027;-75
2022/08/06 00:18:06;;;;;;;17.25;10.10;;;25.50;48.30;;;;;;4992906;28;20041;-76
2022/08/06 00:20:32;;;;;;;16.65;7.72;;;25.50;48.30;;;;;;4993123;28;20027;-78
2022/08/06 00:22:59;;;;;;;14.63;5.07;;;25.50;48.50;;;;;;4993356;28;20403;-77
2022/08/06 00:25:25;;;;;;;16.23;4.63;;;25.50;48.30;;;;;;4993512;28;20041;-78
2022/08/06 00:27:51;;;;;;;14.57;4.00;;;25.40;48.50;;;;;;4994945;28;20029;-77
2022/08/06 00:30:17;;;;;;;15.18;5.03;;;25.40;49.50;;;;;;4994066;28;20022;-76
2022/08/06 00:32:42;;;;;;;10.63;3.72;;;25.40;48.90;;;;;;4994226;28;20073;-78
2022/08/06 00:35:08;;;;;;;11.30;4.20;;;25.40;48.60;;;;;;4992396;28;20546;-76
2022/08/06 00:37:34;;;;;;;8.50;3.60;;;25.30;48.70;;;;;;4969377;28;20042;-76
2022/08/06 00:40:00;;;;;;;6.78;2.47;;;25.30;48.50;;;;;;4993463;28;20041;-76
2022/08/06 00:42:27;;;;;;;6.32;2.13;;;25.30;48.30;;;;;;4994364;28;20022;-76
2022/08/06 00:44:53;;;;;;;10.70;2.35;;;25.30;47.90;;;;;;4994500;28;20109;-76
2022/08/06 00:47:19;;;;;;;5.68;1.70;;;25.40;48.00;;;;;;4992622;28;20037;-76
2022/08/06 00:49:45;;;;;;;4.85;1.58;;;25.30;47.90;;;;;;4994459;28;20026;-76
2022/08/06 00:52:11;;;;;;;4.60;1.33;;;25.30;47.60;;;;;;4993656;28;20049;-77
2022/08/06 00:54:36;;;;;;;2.90;1.50;;;25.30;47.60;;;;;;4993228;28;20072;-76
2022/08/06 00:57:06;;;;;;;2.97;1.30;;;25.30;47.50;;;;;;4991315;28;20033;-77
2022/08/06 00:59:31;;;;;;;4.45;1.40;;;25.30;47.60;;;;;;4994521;28;20022;-77
2022/08/06 01:01:57;;;;;;;3.78;1.15;;;25.30;47.40;;;;;;4993769;28;20029;-77
2022/08/06 01:04:23;;;;;;;2.45;1.20;;;25.30;47.40;;;;;;4994465;28;20160;-76
2022/08/06 01:06:49;;;;;;;3.03;1.08;;;25.30;47.50;;;;;;4992862;28;20080;-76
2022/08/06 01:09:15;;;;;;;2.88;1.13;;;25.30;47.60;;;;;;4994110;28;20031;-76
2022/08/06 01:11:40;;;;;;;5.32;1.10;;;25.30;47.30;;;;;;4993205;28;20030;-76
2022/08/06 01:14:07;;;;;;;4.10;0.80;;;25.30;47.60;;;;;;4992946;28;20035;-76
2022/08/06 01:16:36;;;;;;;4.20;1.45;;;25.30;47.40;;;;;;4993604;28;20057;-76
2022/08/06 01:19:29;;;;;;;3.15;1.10;;;25.30;47.20;;;;;;4991719;28;20038;-76
2022/08/06 01:22:19;;;;;;;2.70;0.75;;;25.30;47.20;;;;;;4994085;28;20487;-76
2022/08/06 01:25:02;;;;;;;1.45;0.60;;;25.30;47.30;;;;;;4991369;28;20412;-76
2022/08/06 01:27:40;;;;;;;3.03;0.77;;;25.30;46.70;;;;;;4992382;28;20062;-76
2022/08/06 01:30:15;;;;;;;2.85;0.70;;;25.30;46.60;;;;;;4993191;28;20037;-76
2022/08/06 01:33:11;;;;;;;1.35;0.60;;;25.30;47.00;;;;;;4991725;28;20034;-76
2022/08/06 01:35:44;;;;;;;2.63;0.60;;;25.30;47.00;;;;;;4991914;28;20034;-76
2022/08/06 01:38:22;;;;;;;2.55;0.60;;;25.30;47.00;;;;;;4992848;28;20034;-76
2022/08/06 01:40:50;;;;;;;1.10;0.55;;;25.20;47.50;;;;;;4992304;28;20085;-76
2022/08/06 01:43:19;;;;;;;4.57;0.82;;;25.20;46.80;;;;;;4991852;28;20073;-76
2022/08/06 01:45:46;;;;;;;2.35;0.70;;;25.20;46.70;;;;;;4993021;28;20026;-76
2022/08/06 01:48:16;;;;;;;4.95;0.68;;;25.20;46.80;;;;;;4992445;28;20022;-76
2022/08/06 01:50:47;;;;;;;1.85;0.60;;;25.20;46.60;;;;;;4992482;28;20026;-76
2022/08/06 01:53:17;;;;;;;2.30;0.80;;;25.20;46.50;;;;;;4985888;28;20030;-76
2022/08/06 01:55:47;;;;;;;0.60;0.50;;;25.20;46.90;;;;;;4991922;28;20487;-76
2022/08/06 01:58:17;;;;;;;2.90;0.60;;;25.20;46.50;;;;;;4984505;28;20447;-76
2022/08/06 02:00:48;;;;;;;2.55;0.80;;;25.10;46.60;;;;;;4992911;28;20376;-77
2022/08/06 02:03:22;;;;;;;1.60;0.60;;;25.10;46.30;;;;;;4992223;28;20026;-77
2022/08/06 02:05:51;;;;;;;3.80;1.25;;;25.20;46.60;;;;;;4991536;28;20340;-76
2022/08/06 02:08:22;;;;;;;1.45;0.60;;;25.10;46.50;;;;;;4991932;28;20073;-77
2022/08/06 02:10:50;;;;;;;2.33;0.57;;;25.20;46.60;;;;;;4992914;28;20033;-76
2022/08/06 02:13:17;;;;;;;1.77;0.60;;;25.10;46.60;;;;;;4991041;28;20030;-77
2022/08/06 02:15:44;;;;;;;2.65;0.60;;;25.10;46.60;;;;;;4991664;28;20069;-76
2022/08/06 02:18:13;;;;;;;1.05;0.50;;;25.10;46.60;;;;;;4992061;28;20022;-77
2022/08/06 02:20:43;;;;;;;3.47;0.70;;;25.10;46.50;;;;;;4991488;28;20486;-77
2022/08/06 02:23:16;;;;;;;1.77;0.63;;;25.10;46.40;;;;;;4990724;28;20030;-77
2022/08/06 02:25:47;;;;;;;0.95;0.60;;;25.10;46.60;;;;;;4991705;28;20040;-77
2022/08/06 02:28:15;;;;;;;2.30;0.52;;;25.10;46.60;;;;;;4985191;28;20022;-75
2022/08/06 02:30:44;;;;;;;4.00;0.63;;;25.10;46.50;;;;;;4990775;28;20027;-76
2022/08/06 02:33:11;;;;;;;1.30;0.60;;;25.10;46.80;;;;;;4984959;28;20294;-76
2022/08/06 02:35:47;;;;;;;1.85;0.50;;;25.10;46.60;;;;;;4990149;28;20410;-76
2022/08/06 02:38:24;;;;;;;0.88;0.60;;;25.10;46.50;;;;;;4983588;28;20031;-75
2022/08/06 02:40:59;;;;;;;1.17;0.50;;;25.10;46.40;;;;;;4990469;28;20390;-75
2022/08/06 02:43:56;;;;;;;1.95;0.60;;;25.10;46.70;;;;;;4992466;28;20037;-75
2022/08/06 02:46:27;;;;;;;2.15;0.60;;;25.10;46.60;;;;;;4987243;28;20032;-76
2022/08/06 02:49:02;;;;;;;2.28;0.65;;;25.10;46.50;;;;;;4992385;28;20050;-76
2022/08/06 02:51:36;;;;;;;1.48;0.88;;;25.10;46.60;;;;;;4991459;28;20537;-75
2022/08/06 02:54:13;;;;;;;1.63;0.57;;;25.00;46.40;;;;;;4992580;28;20026;-75
2022/08/06 02:56:44;;;;;;;2.58;0.73;;;25.00;46.30;;;;;;4991332;28;20030;-75
2022/08/06 02:59:14;;;;;;;2.80;0.73;;;25.00;46.50;;;;;;4984625;28;20081;-76
2022/08/06 03:01:42;;;;;;;;;;;25.00;46.30;;;;;;4991859;28;20026;-75
2022/08/06 03:04:09;;;;;;;4.38;0.60;;;25.00;46.20;;;;;;4992223;28;19919;-75
2022/08/06 03:06:37;;;;;;;2.05;0.60;;;25.00;46.70;;;;;;4991152;28;20065;-76
2022/08/06 03:09:06;;;;;;;1.75;0.57;;;25.00;46.80;;;;;;4992206;28;20434;-76
2022/08/06 03:11:34;;;;;;;0.90;0.55;;;25.00;46.50;;;;;;4991383;28;20027;-75
2022/08/06 03:14:02;;;;;;;2.65;0.63;;;25.00;46.20;;;;;;4991026;28;20464;-76
2022/08/06 03:16:35;;;;;;;3.13;0.70;;;25.00;46.20;;;;;;4991218;28;20534;-75
2022/08/06 03:19:01;;;;;;;3.45;0.77;;;25.00;46.10;;;;;;4992137;28;20022;-75
2022/08/06 03:21:29;;;;;;;4.20;0.80;;;25.00;46.00;;;;;;4991134;28;20033;-75
2022/08/06 03:23:56;;;;;;;1.30;0.50;;;25.00;46.00;;;;;;4991025;28;20030;-75
2022/08/06 03:26:24;;;;;;;3.30;0.52;;;24.90;45.80;;;;;;4990995;28;20060;-76
2022/08/06 03:28:51;;;;;;;2.33;0.70;;;25.00;46.00;;;;;;4991970;28;20026;-76
2022/08/06 03:31:17;;;;;;;1.10;0.50;;;25.00;45.80;;;;;;4991692;28;20351;-75
2022/08/06 03:33:43;;;;;;;2.33;0.90;;;25.00;45.80;;;;;;4992009;28;20454;-75
2022/08/06 03:36:10;;;;;;;2.80;0.68;;;24.90;45.90;;;;;;4990914;28;20061;-75
2022/08/06 03:38:44;;;;;;;2.35;0.70;;;24.90;45.70;;;;;;4991709;28;20441;-76
2022/08/06 03:41:12;;;;;;;7.85;0.82;;;24.90;45.80;;;;;;4990997;28;20058;-76
2022/08/06 03:43:38;;;;;;;1.25;0.60;;;24.90;45.70;;;;;;4991819;28;20030;-75
2022/08/06 03:46:07;;;;;;;2.10;0.80;;;24.90;45.70;;;;;;4990651;28;20022;-76
2022/08/06 03:48:37;;;;;;;4.10;0.88;;;24.90;45.70;;;;;;4990871;28;20031;-75
2022/08/06 03:51:09;;;;;;;2.28;0.60;;;24.90;46.30;;;;;;4991090;28;20034;-76
2022/08/06 03:53:37;;;;;;;3.53;0.80;;;24.90;45.60;;;;;;4988938;28;20034;-76
2022/08/06 03:56:05;;;;;;;2.83;0.80;;;24.90;45.60;;;;;;4991502;28;20506;-76
2022/08/06 03:58:35;;;;;;;2.85;0.70;;;24.90;45.60;;;;;;4994046;28;20030;-76
2022/08/06 04:01:02;;;;;;;;;;;24.90;45.60;;;;;;4995862;28;20073;-75
2022/08/06 04:03:28;;;;;;;1.75;0.52;;;24.90;45.60;;;;;;4995217;28;19914;-76
2022/08/06 04:05:56;;;;;;;1.38;0.60;;;24.90;45.70;;;;;;4994639;28;20033;-76
2022/08/06 04:08:23;;;;;;;1.63;0.60;;;24.90;45.60;;;;;;4994061;28;20022;-76
2022/08/06 04:10:50;;;;;;;2.75;0.55;;;24.90;45.60;;;;;;4994132;28;20105;-76
2022/08/06 04:13:21;;;;;;;1.23;0.60;;;24.90;45.50;;;;;;4993310;28;20086;-75
2022/08/06 04:15:48;;;;;;;2.10;0.70;;;24.90;45.50;;;;;;4998899;28;20101;-75
2022/08/06 04:18:19;;;;;;;3.33;0.68;;;24.80;45.50;;;;;;4995254;28;20100;-75
2022/08/06 04:20:50;;;;;;;0.70;0.57;;;24.80;45.40;;;;;;4994856;28;20026;-75
2022/08/06 04:23:16;;;;;;;2.88;0.90;;;24.80;45.60;;;;;;4995554;28;20109;-75
2022/08/06 04:25:45;;;;;;;5.97;1.25;;;24.80;45.50;;;;;;4993096;28;20538;-75
2022/08/06 04:28:13;;;;;;;4.05;0.80;;;24.80;45.50;;;;;;4975488;28;20555;-75
2022/08/06 04:30:40;;;;;;;3.08;0.90;;;24.80;45.50;;;;;;4991890;28;20479;-75
2022/08/06 04:33:11;;;;;;;1.50;0.90;;;24.80;45.60;;;;;;4993815;28;20080;-75
2022/08/06 04:35:40;;;;;;;2.88;0.82;;;24.80;45.60;;;;;;4993561;28;20053;-75
2022/08/06 04:38:07;;;;;;;1.27;0.70;;;24.80;45.60;;;;;;5008795;28;20552;-75
2022/08/06 04:40:33;;;;;;;1.27;0.80;;;24.80;45.60;;;;;;4994378;28;20122;-75
2022/08/06 04:42:59;;;;;;;2.75;1.08;;;24.80;45.60;;;;;;4993727;28;20066;-76
2022/08/06 04:45:26;;;;;;;2.03;0.95;;;24.80;45.60;;;;;;4994241;28;20054;-76
2022/08/06 04:47:52;;;;;;;6.78;3.90;;;24.80;45.60;;;;;;4994554;28;20026;-76
2022/08/06 04:50:18;;;;;;;8.95;4.32;;;24.80;45.70;;;;;;4991888;28;20442;-75
2022/08/06 04:52:44;;;;;;;10.25;4.18;;;24.80;45.70;;;;;;4993311;28;20058;-76
2022/08/06 04:55:10;;;;;;;7.97;4.03;;;24.80;45.80;;;;;;4992942;28;20397;-75
2022/08/06 04:57:36;;;;;;;8.38;3.75;;;24.80;45.80;;;;;;4994402;28;20105;-76
2022/08/06 05:00:03;;;;;;;6.68;2.92;;;24.80;46.00;;;;;;4993269;28;20170;-76
2022/08/06 05:02:29;;;;;;;6.75;2.15;;;24.80;45.80;;;;;;4993528;28;20077;-75
2022/08/06 05:04:57;;;;;;;9.38;2.40;;;24.80;46.40;;;;;;4994094;28;20026;-75
2022/08/06 05:07:27;;;;;;;6.78;2.00;;;24.80;46.20;;;;;;4993608;28;20030;-75
2022/08/06 05:09:53;;;;;;;5.40;1.80;;;24.80;46.10;;;;;;4993061;28;20359;-75
2022/08/06 05:12:27;;;;;;;3.97;1.67;;;24.80;46.10;;;;;;4993190;28;20476;-75
2022/08/06 05:15:01;;;;;;;4.05;1.30;;;24.80;46.00;;;;;;4993588;28;20041;-75
2022/08/06 05:17:31;;;;;;;5.38;1.52;;;24.70;45.80;;;;;;4994283;28;20034;-75
2022/08/06 05:20:05;;;;;;;3.05;1.08;;;24.80;46.10;;;;;;4992874;28;20040;-75
2022/08/06 05:22:32;;;;;;;2.80;1.00;;;24.70;45.80;;;;;;4992716;28;20138;-75
2022/08/06 05:24:59;;;;;;;2.13;0.75;;;24.70;45.80;;;;;;4993216;28;20034;-75
2022/08/06 05:27:25;;;;;;;2.92;1.00;;;24.70;45.90;;;;;;4991609;28;20110;-75
2022/08/06 05:29:51;;;;;;;4.40;1.00;;;24.70;45.70;;;;;;4993562;28;20038;-75
2022/08/06 05:32:17;;;;;;;2.63;0.90;;;24.70;45.80;;;;;;4992843;28;20057;-75
2022/08/06 05:34:46;;;;;;;2.28;0.90;;;24.70;46.40;;;;;;4993640;28;20096;-76
2022/08/06 05:37:12;;;;;;;3.57;0.80;;;24.70;45.70;;;;;;4975481;28;20035;-76
2022/08/06 05:39:38;;;;;;;2.47;0.80;;;24.70;45.80;;;;;;4991656;28;20042;-76
2022/08/06 05:42:03;;;;;;;3.92;0.85;;;24.70;45.90;;;;;;4992509;28;20034;-76
2022/08/06 05:44:29;;;;;;;2.67;0.90;;;24.70;45.70;;;;;;4993398;28;20023;-76
2022/08/06 05:47:02;;;;;;;3.97;0.50;;;24.70;45.90;;;;;;5008173;28;20031;-76
2022/08/06 05:49:51;;;;;;;4.38;0.98;;;24.70;45.80;;;;;;4992255;28;20121;-76
2022/08/06 05:52:26;;;;;;;2.15;0.68;;;24.70;46.00;;;;;;4978998;28;20030;-76
2022/08/06 05:55:02;;;;;;;5.15;0.90;;;24.70;46.00;;;;;;4993243;28;20026;-76
2022/08/06 05:57:35;;;;;;;3.00;0.73;;;24.70;46.10;;;;;;4991357;28;20018;-76
2022/08/06 06:00:11;;;;;;;1.80;0.70;;;24.60;46.10;;;;;;4992108;28;20034;-76
2022/08/06 06:02:41;;;;;;;3.60;0.82;;;24.60;46.10;;;;;;4992033;28;20022;-76
2022/08/06 06:05:08;;;;;;;4.90;0.85;;;24.70;46.20;;;;;;4991494;28;20026;-76
2022/08/06 06:07:34;;;;;;;5.03;0.98;;;24.70;46.20;;;;;;4975776;28;20463;-77
2022/08/06 06:10:03;;;;;;;3.28;0.60;;;24.70;46.20;;;;;;4993035;28;20026;-77
2022/08/06 06:12:30;;;;;;;3.03;0.60;;;24.70;46.20;;;;;;4989753;28;20364;-75
2022/08/06 06:14:57;;;;;;;6.57;0.90;;;24.70;46.20;;;;;;4993144;28;20367;-76
2022/08/06 06:17:37;;;;;;;5.43;0.80;;;24.70;46.20;;;;;;4991567;28;20475;-76
2022/08/06 06:20:29;;;;;;;3.35;1.42;;;24.70;46.30;;;;;;4992584;28;20062;-76
2022/08/06 06:23:08;;;;;;;4.53;0.88;;;24.70;46.30;;;;;;4991866;28;20121;-76
2022/08/06 06:25:56;;;;;;;5.60;1.13;;;24.70;46.40;;;;;;4992604;28;20023;-76
2022/08/06 06:28:32;;;;;;;6.25;2.80;;;24.70;46.40;;;;;;4990467;28;20027;-77
2022/08/06 06:31:17;;;;;;;9.85;2.38;;;24.70;46.50;;;;;;4975401;28;20030;-76
2022/08/06 06:34:08;;;;;;;7.13;2.90;;;24.70;46.50;;;;;;4989131;28;20511;-77
2022/08/06 06:36:47;;;;;;;7.40;2.70;;;24.70;46.80;;;;;;4975910;28;20030;-77
2022/08/06 06:39:25;;;;;;;4.72;1.63;;;24.80;46.50;;;;;;4984926;28;20053;-76
2022/08/06 06:42:19;;;;;;;5.18;2.03;;;24.80;46.50;;;;;;4990869;28;20125;-77
2022/08/06 06:44:51;;;;;;;3.95;1.45;;;24.80;46.60;;;;;;4958258;28;20065;-76
2022/08/06 06:47:26;;;;;;;2.90;1.27;;;24.80;46.50;;;;;;4990100;28;20033;-76
2022/08/06 06:49:59;;;;;;;4.28;1.58;;;24.80;46.60;;;;;;4992288;28;20088;-77
2022/08/06 06:52:34;;;;;;;3.17;1.10;;;24.80;46.50;;;;;;4991060;28;20033;-76
2022/08/06 06:55:20;;;;;;;2.05;0.90;;;24.80;46.50;;;;;;4992364;28;20045;-77
2022/08/06 06:57:52;;;;;;;4.00;0.95;;;24.80;46.60;;;;;;4991588;28;20419;-76
2022/08/06 07:00:18;;;;;;;3.03;1.08;;;24.80;46.50;;;;;;4991169;28;20030;-76
2022/08/06 07:02:48;;;;;;;3.72;1.17;;;24.80;46.50;;;;;;5006351;28;20117;-76
2022/08/06 07:05:16;;;;;;;1.88;0.80;;;24.80;46.50;;;;;;4991266;28;20616;-76
2022/08/06 07:07:45;;;;;;;2.92;0.88;;;24.80;46.50;;;;;;4992263;28;20088;-76
2022/08/06 07:10:13;;;;;;;3.08;1.00;;;24.80;46.40;;;;;;4973671;28;20023;-75
2022/08/06 07:12:42;;;;;;;3.20;0.88;;;24.80;46.40;;;;;;4992279;28;20475;-76
2022/08/06 07:15:09;;;;;;;3.72;0.80;;;24.80;46.50;;;;;;4991145;28;20018;-75
2022/08/06 07:17:38;;;;;;;2.85;1.02;;;24.90;46.60;;;;;;4992098;28;20022;-76
2022/08/06 07:20:07;;;;;;;4.40;1.42;;;24.90;46.50;;;;;;4992024;28;20045;-77
2022/08/06 07:22:35;;;;;;;4.47;2.00;;;24.90;46.50;;;;;;4991902;28;20019;-77
2022/08/06 07:25:04;;;;;;;4.65;1.52;;;24.90;46.60;;;;;;4991951;28;20105;-77
2022/08/06 07:27:37;;;;;;;2.65;1.65;;;24.90;46.60;;;;;;4990380;28;20096;-76
2022/08/06 07:30:04;;;;;;;4.53;1.70;;;24.90;46.50;;;;;;4990690;28;20097;-76
2022/08/06 07:32:32;;;;;;;3.83;1.23;;;24.90;46.60;;;;;;4992818;28;20022;-76
2022/08/06 07:34:59;;;;;;;3.58;1.40;;;24.90;46.60;;;;;;4995094;28;20018;-76
2022/08/06 07:37:26;;;;;;;3.90;1.50;;;24.90;46.70;;;;;;4994331;28;20026;-76
2022/08/06 07:39:55;;;;;;;3.63;1.15;;;24.90;46.60;;;;;;4994760;28;20991;-76
2022/08/06 07:42:24;;;;;;;2.38;1.20;;;25.00;46.70;;;;;;4989343;28;20029;-76
2022/08/06 07:44:53;;;;;;;2.13;1.00;;;25.00;46.70;;;;;;4993627;28;20026;-77
2022/08/06 07:47:24;;;;;;;2.95;1.10;;;25.00;46.80;;;;;;4994371;28;20490;-76
2022/08/06 07:49:54;;;;;;;2.17;1.10;;;25.00;46.70;;;;;;4993706;28;20644;-77
2022/08/06 07:52:21;;;;;;;2.58;1.13;;;25.00;46.70;;;;;;4987880;28;20030;-76
2022/08/06 07:54:47;;;;;;;4.85;1.35;;;25.00;46.60;;;;;;4993908;28;20030;-76
2022/08/06 07:57:14;;;;;;;3.67;1.00;;;25.00;47.00;;;;;;4994544;28;20058;-76
2022/08/06 07:59:41;;;;;;;5.35;2.00;;;25.00;46.60;;;;;;4992913;28;20475;-76
2022/08/06 08:02:10;;;;;;;2.47;1.02;;;25.10;46.70;;;;;;4995202;28;20549;-75
2022/08/06 08:07:22;;;;;;;3.00;1.20;;;25.10;46.60;;;;;;4988641;28;20018;-76
2022/08/06 08:09:48;;;;;;;2.22;0.95;;;25.10;46.60;;;;;;5009497;28;20026;-76
2022/08/06 08:12:18;;;;;;;3.60;1.00;;;25.10;46.80;;;;;;4993565;28;20077;-76
2022/08/06 08:14:46;;;;;;;2.30;0.85;;;25.10;46.70;;;;;;4994185;28;20026;-76
2022/08/06 08:17:13;;;;;;;1.88;0.80;;;25.10;46.70;;;;;;4993576;28;20022;-76
2022/08/06 08:19:40;;;;;;;2.33;0.80;;;25.00;46.60;;;;;;4994241;28;20117;-76
2022/08/06 08:22:09;;;;;;;2.03;0.80;;;25.10;46.50;;;;;;4994996;28;20437;-76
2022/08/06 08:24:36;;;;;;;2.10;0.70;;;25.10;46.30;;;;;;4994072;28;20114;-76
2022/08/06 08:27:03;;;;;;;1.55;0.80;;;25.10;46.60;;;;;;4994625;28;20106;-77
2022/08/06 08:29:29;;;;;;;2.05;0.60;;;25.10;46.60;;;;;;4994001;28;20018;-76
2022/08/06 08:31:56;;;;;;;4.90;0.93;;;25.10;46.50;;;;;;4994737;28;20026;-77
2022/08/06 08:34:22;;;;;;;1.77;0.75;;;25.10;46.40;;;;;;4992254;28;20026;-76
2022/08/06 08:36:48;;;;;;;4.18;0.90;;;25.10;46.50;;;;;;4994499;28;20046;-75
2022/08/06 08:39:17;;;;;;;1.73;0.60;;;25.20;46.50;;;;;;4993914;28;20045;-75
2022/08/06 08:41:45;;;;;;;1.77;0.75;;;25.20;46.40;;;;;;4993760;28;20032;-75
2022/08/06 08:44:12;;;;;;;1.67;0.70;;;25.20;46.40;;;;;;4985929;28;20034;-75
2022/08/06 08:46:42;;;;;;;1.52;0.70;;;25.20;46.40;;;;;;4994302;28;20097;-75
2022/08/06 08:49:19;;;;;;;2.90;0.98;;;25.20;46.40;;;;;;4993478;28;20022;-75
2022/08/06 08:51:47;;;;;;;2.28;0.82;;;25.20;46.30;;;;;;4994418;28;20031;-76
2022/08/06 08:54:18;;;;;;;2.75;0.95;;;25.20;46.10;;;;;;4993719;28;20085;-76
2022/08/06 08:56:45;;;;;;;2.22;0.90;;;25.10;45.70;;;;;;4992915;28;20034;-77
2022/08/06 08:59:12;;;;;;;1.15;0.70;;;25.20;45.80;;;;;;4993530;28;20037;-76
2022/08/06 09:01:39;;;;;;;2.95;0.80;;;25.20;46.10;;;;;;4994212;28;20113;-76
2022/08/06 09:04:05;;;;;;;1.48;0.90;;;25.20;46.00;;;;;;4992303;28;20398;-76
2022/08/06 09:06:32;;;;;;;2.78;0.80;;;25.20;45.60;;;;;;4976734;28;20030;-77
2022/08/06 09:09:05;;;;;;;2.25;0.88;;;25.20;45.40;;;;;;4993033;28;20486;-77
2022/08/06 09:11:32;;;;;;;3.05;0.82;;;25.20;45.20;;;;;;4992090;28;20030;-77
2022/08/06 09:14:05;;;;;;;2.90;1.00;;;25.20;45.60;;;;;;4993166;28;20113;-77
2022/08/06 09:16:33;;;;;;;3.25;0.90;;;25.20;45.10;;;;;;4992582;28;20390;-76
2022/08/06 09:18:59;;;;;;;1.10;0.60;;;25.20;45.60;;;;;;4993072;28;20442;-77
2022/08/06 09:21:26;;;;;;;2.72;0.88;;;25.20;45.80;;;;;;4993888;28;20390;-77
2022/08/06 09:23:52;;;;;;;1.42;0.65;;;25.20;45.90;;;;;;4993201;28;20023;-76
2022/08/06 09:26:17;;;;;;;2.08;0.80;;;25.20;46.10;;;;;;4992351;28;20030;-77
2022/08/06 09:28:46;;;;;;;4.55;0.63;;;25.30;46.10;;;;;;4993170;28;20048;-76
2022/08/06 09:31:17;;;;;;;2.05;1.08;;;25.30;46.10;;;;;;4993582;28;20518;-76
2022/08/06 09:33:58;;;;;;;1.88;0.70;;;25.30;46.30;;;;;;4991748;28;20041;-77
2022/08/06 09:36:24;;;;;;;2.95;0.85;;;25.30;46.20;;;;;;4985579;28;20389;-77
2022/08/06 09:38:51;;;;;;;2.22;0.80;;;25.30;46.10;;;;;;4991270;28;20030;-76
2022/08/06 09:41:20;;;;;;;1.42;0.60;;;25.30;46.10;;;;;;4992549;28;20442;-76
2022/08/06 09:43:48;;;;;;;2.00;0.75;;;25.30;46.10;;;;;;4992785;28;20031;-77
2022/08/06 09:46:14;;;;;;;2.92;0.90;;;25.30;45.50;;;;;;4983316;28;20902;-78
2022/08/06 09:49:00;;;;;;;2.35;0.90;;;25.30;45.30;;;;;;4991460;28;20030;-77
2022/08/06 09:51:27;;;;;;;1.55;0.80;;;25.30;45.50;;;;;;4973074;28;20480;-77
2022/08/06 09:53:54;;;;;;;2.33;0.90;;;25.30;45.00;;;;;;4991010;28;20372;-77
2022/08/06 09:56:20;;;;;;;2.45;0.70;;;25.30;45.30;;;;;;4991758;28;20494;-77
2022/08/06 09:58:47;;;;;;;2.47;0.93;;;25.30;45.10;;;;;;4992453;28;20395;-77
2022/08/06 10:01:15;;;;;;;0.77;0.52;;;25.30;45.40;;;;;;4990975;28;20414;-77
2022/08/06 10:03:41;;;;;;;0.77;0.60;;;25.30;45.50;;;;;;4993120;28;20054;-77
2022/08/06 10:06:21;;;;;;;2.35;0.70;;;25.30;45.80;;;;;;4993133;28;20093;-76
2022/08/06 10:08:49;;;;;;;1.73;0.80;;;25.30;45.70;;;;;;4992235;28;20022;-76
2022/08/06 10:11:26;;;;;;;1.25;0.68;;;25.30;45.90;;;;;;4975504;28;20113;-76
2022/08/06 10:13:52;;;;;;;3.22;1.00;;;25.30;45.90;;;;;;4981136;28;20390;-76
2022/08/06 10:16:20;;;;;;;2.78;0.82;;;25.30;45.90;;;;;;4992734;28;20023;-76
2022/08/06 10:18:48;;;;;;;2.38;0.80;;;25.30;46.10;;;;;;4992898;28;20106;-77
2022/08/06 10:21:17;;;;;;;2.03;0.73;;;25.30;46.00;;;;;;4974629;28;20027;-76
2022/08/06 10:23:48;;;;;;;9.65;1.10;;;25.30;45.80;;;;;;4991864;28;20034;-72
2022/08/06 10:26:18;;;;;;;4.32;0.90;;;25.30;44.80;;;;;;4965833;28;20030;-72
2022/08/06 10:28:46;;;;;;;3.88;1.05;;;25.30;44.60;;;;;;4989499;28;20033;-72
2022/08/06 10:31:14;;;;;;;5.05;0.88;;;25.20;44.40;;;;;;4991828;28;20023;-73
2022/08/06 10:33:46;;;;;;;2.83;0.70;;;25.20;45.00;;;;;;4992830;28;20391;-74
2022/08/06 10:36:14;;;;;;;3.70;0.70;;;25.00;42.40;;;;;;4990654;28;20474;-73
2022/08/06 10:38:45;;;;;;;2.90;0.77;;;25.00;43.20;;;;;;4989451;28;20398;-73
2022/08/06 10:41:13;;;;;;;1.48;0.70;;;25.00;43.10;;;;;;4984961;28;20032;-73
2022/08/06 10:43:39;;;;;;;7.88;0.90;;;25.00;43.20;;;;;;4991509;28;20023;-72
2022/08/06 10:46:15;;;;;;;4.85;0.90;;;25.00;42.90;;;;;;4992121;28;20114;-72
2022/08/06 10:48:44;;;;;;;2.38;0.50;;;25.00;42.40;;;;;;4974582;28;20033;-71
2022/08/06 10:51:11;;;;;;;2.13;0.70;;;25.00;41.70;;;;;;4984673;28;20386;-72
2022/08/06 10:53:41;;;;;;;5.07;0.90;;;25.00;42.60;;;;;;4990440;28;20030;-73
2022/08/06 10:56:09;;;;;;;2.28;0.77;;;25.00;41.80;;;;;;4988603;28;20802;-72
2022/08/06 10:58:36;;;;;;;2.17;0.70;;;25.00;41.00;;;;;;4987605;28;20037;-72
2022/08/06 11:01:21;;;;;;;4.22;0.85;;;24.90;41.40;;;;;;4990942;28;20482;-72
2022/08/06 11:04:25;;;;;;;3.13;0.70;;;24.90;41.90;;;;;;4989846;28;20038;-73
2022/08/06 11:07:08;;;;;;;3.25;1.02;;;25.00;42.30;;;;;;4991691;28;20042;-71
2022/08/06 11:09:40;;;;;;;3.42;0.73;;;25.00;41.60;;;;;;4992936;28;20022;-71
2022/08/06 11:12:44;;;;;;;2.72;0.90;;;25.00;41.70;;;;;;4991920;28;20042;-71
2022/08/06 11:15:10;;;;;;;1.17;0.52;;;24.90;41.30;;;;;;4989675;28;20035;-72
2022/08/06 11:17:46;;;;;;;2.60;0.90;;;24.90;41.20;;;;;;4993760;28;20054;-72
2022/08/06 11:20:36;;;;;;;2.90;0.88;;;24.90;41.30;;;;;;4994232;28;20058;-72
2022/08/06 11:23:11;;;;;;;2.83;0.80;;;24.90;40.90;;;;;;4993088;28;20042;-72
2022/08/06 11:25:40;;;;;;;3.92;0.93;;;24.90;41.20;;;;;;4993038;28;20034;-72
2022/08/06 11:28:07;;;;;;;2.20;0.87;;;25.00;41.20;;;;;;4993479;28;20053;-71
2022/08/06 11:30:54;;;;;;;2.78;0.90;;;25.00;40.70;;;;;;4993628;28;20022;-71
2022/08/06 11:33:32;;;;;;;2.88;0.90;;;25.00;40.30;;;;;;5009093;28;20034;-71
2022/08/06 11:36:09;;;;;;;3.03;1.23;;;25.00;40.10;;;;;;4993197;28;20112;-72
2022/08/06 11:38:47;;;;;;;3.33;1.02;;;24.90;40.10;;;;;;4991987;28;20074;-72
2022/08/06 11:41:27;;;;;;;2.92;1.08;;;24.90;40.40;;;;;;4992325;28;20034;-72
2022/08/06 11:43:52;;;;;;;3.17;1.10;;;25.00;40.70;;;;;;4991607;28;20125;-73
2022/08/06 11:46:21;;;;;;;3.75;1.02;;;25.00;40.20;;;;;;4992920;28;20105;-70
2022/08/06 11:48:59;;;;;;;6.55;2.38;;;25.00;40.40;;;;;;4992184;28;20461;-71
2022/08/06 11:51:44;;;;;;;4.43;1.80;;;25.00;39.90;;;;;;4991042;28;20513;-71
2022/08/06 11:54:19;;;;;;;5.97;1.90;;;25.00;40.10;;;;;;4991872;28;20041;-72
2022/08/06 11:57:06;;;;;;;5.38;1.58;;;25.00;40.10;;;;;;4991201;28;20334;-73
2022/08/06 11:59:44;;;;;;;6.63;1.30;;;25.00;39.10;;;;;;5005770;28;20097;-72
2022/08/06 12:02:15;;;;;;;2.85;1.30;;;25.00;39.10;;;;;;4993354;28;20504;-72
2022/08/06 12:04:43;;;;;;;5.72;1.70;;;24.90;38.90;;;;;;4993691;28;20026;-71
2022/08/06 12:07:45;;;;;;;3.20;1.15;;;24.90;38.80;;;;;;4993460;28;20035;-71
2022/08/06 12:10:13;;;;;;;5.35;0.93;;;25.00;39.30;;;;;;4946925;29;20046;-71
2022/08/06 12:12:43;;;;;;;2.72;0.70;;;24.90;39.10;;;;;;4980499;28;20053;-70
2022/08/06 12:15:11;;;;;;;1.85;0.60;;;24.50;37.20;;;;;;4993183;28;21465;-72
2022/08/06 12:17:39;;;;;;;3.35;1.00;;;24.50;37.90;;;;;;4990861;28;20030;-71
2022/08/06 12:20:06;;;;;;;2.22;0.88;;;24.60;37.80;;;;;;4992499;28;20026;-71
2022/08/06 12:22:33;;;;;;;4.10;0.90;;;24.70;39.00;;;;;;4974497;28;20023;-71
2022/08/06 12:25:05;;;;;;;4.38;1.35;;;24.70;38.60;;;;;;4991843;28;20042;-71
2022/08/06 12:27:33;;;;;;;18.55;1.90;;;24.90;39.40;;;;;;4991525;28;20023;-71
2022/08/06 12:30:01;;;;;;;4.35;1.00;;;25.00;39.60;;;;;;4991739;28;20033;-72
2022/08/06 12:32:36;;;;;;;3.58;0.82;;;25.00;39.20;;;;;;4991792;28;20042;-71
2022/08/06 12:35:08;;;;;;;1.75;0.75;;;25.10;39.40;;;;;;4992221;28;20514;-71
2022/08/06 12:37:43;;;;;;;3.88;0.90;;;25.10;39.20;;;;;;4990014;28;20317;-72
2022/08/06 12:40:23;;;;;;;2.72;0.80;;;25.10;39.80;;;;;;5027153;23;20091;-73
2022/08/06 12:42:50;;;;;;;7.93;1.10;;;25.10;39.90;;;;;;5042300;28;20774;-73
2022/08/06 12:45:21;;;;;;;7.65;1.23;;;25.10;40.00;;;;;;5033121;28;20485;-74
2022/08/06 12:48:16;;;;;;;9.80;1.70;;;25.10;40.70;;;;;;5045988;28;20022;-73
2022/08/06 12:50:43;;;;;;;6.57;1.60;;;25.10;40.30;;;;;;5040116;28;20037;-72
2022/08/06 12:53:11;;;;;;;7.38;1.40;;;25.20;40.30;;;;;;5049722;28;20455;-74
2022/08/06 12:55:47;;;;;;;4.32;1.17;;;25.20;40.70;;;;;;5054644;28;20369;-73
2022/08/06 12:58:19;;;;;;;4.03;1.33;;;25.30;40.70;;;;;;5045072;28;20033;-73
2022/08/06 13:00:53;;;;;;;9.65;1.50;;;25.30;40.90;;;;;;5034410;28;20863;-73
2022/08/06 13:03:23;;;;;;;6.13;1.40;;;25.20;41.20;;;;;;5049779;28;20025;-74
2022/08/06 13:05:50;;;;;;;;;;;25.30;41.30;;;;;;5049168;28;20064;-73
2022/08/06 13:08:18;;;;;;;8.85;1.73;;;25.30;41.60;;;;;;5050370;28;20305;-73